createdAt,value
2022-11-25T00:00:20.054Z,5.80
2022-11-25T00:02:47.888Z,5.67
2022-11-25T00:05:15.910Z,5.59
2022-11-25T00:07:43.704Z,5.47
2022-11-25T00:10:11.596Z,5.32
2022-11-25T00:12:40.764Z,5.55
2022-11-25T00:15:09.206Z,5.66
2022-11-25T00:17:36.995Z,5.67
2022-11-25T00:20:06.152Z,5.69
2022-11-25T00:22:33.859Z,5.60
2022-11-25T00:25:01.581Z,5.54
2022-11-25T00:27:29.304Z,5.31
2022-11-25T00:29:58.389Z,5.28
2022-11-25T00:32:26.162Z,5.47
2022-11-25T00:34:53.863Z,5.52
2022-11-25T00:37:21.630Z,5.42
2022-11-25T00:39:49.368Z,5.36
2022-11-25T00:42:34.574Z,5.27
2022-11-25T00:45:03.709Z,5.42
2022-11-25T00:47:31.446Z,5.42
2022-11-25T00:49:59.162Z,5.36
2022-11-25T00:52:28.020Z,5.38
2022-11-25T00:54:56.043Z,5.47
2022-11-25T00:57:24.648Z,5.50
2022-11-25T00:59:52.387Z,5.59
2022-11-25T01:02:21.559Z,5.70
2022-11-25T01:04:49.415Z,5.56
2022-11-25T01:07:17.583Z,5.52
2022-11-25T01:09:45.402Z,5.87
2022-11-25T01:12:13.157Z,5.74
2022-11-25T01:14:41.026Z,6.00
2022-11-25T01:17:08.775Z,6.02
2022-11-25T01:19:40.292Z,6.63
2022-11-25T01:22:08.414Z,6.31
2022-11-25T01:24:36.508Z,6.49
2022-11-25T01:27:04.489Z,6.88
2022-11-25T01:29:32.168Z,6.78
2022-11-25T01:31:59.936Z,6.28
2022-11-25T01:34:29.769Z,6.77
2022-11-25T01:36:58.998Z,6.79
2022-11-25T01:39:32.396Z,6.36
2022-11-25T01:42:00.799Z,6.31
2022-11-25T01:44:30.811Z,6.11
2022-11-25T01:47:04.424Z,6.32
2022-11-25T01:49:37.659Z,6.59
2022-11-25T01:52:14.720Z,6.69
2022-11-25T01:54:47.179Z,7.03
2022-11-25T01:57:18.762Z,6.63
2022-11-25T01:59:50.634Z,6.36
2022-11-25T02:02:20.238Z,6.44
2022-11-25T02:04:48.871Z,5.84
2022-11-25T02:07:25.291Z,5.92
2022-11-25T02:09:55.091Z,5.86
2022-11-25T02:12:23.679Z,6.29
2022-11-25T02:14:53.028Z,6.06
2022-11-25T02:17:21.492Z,6.49
2022-11-25T02:20:01.434Z,6.07
2022-11-25T02:22:41.986Z,5.60
2022-11-25T02:25:15.493Z,5.43
2022-11-25T02:27:45.830Z,5.40
2022-11-25T02:30:15.015Z,5.47
2022-11-25T02:32:46.081Z,5.18
2022-11-25T02:35:36.055Z,6.01
2022-11-25T02:38:09.384Z,5.86
2022-11-25T02:40:45.025Z,5.75
2022-11-25T02:43:13.427Z,5.18
2022-11-25T02:45:51.869Z,4.74
2022-11-25T02:48:19.766Z,5.22
2022-11-25T02:50:47.563Z,5.04
2022-11-25T02:53:15.380Z,6.04
2022-11-25T02:55:44.467Z,5.19
2022-11-25T02:58:12.197Z,5.46
2022-11-25T03:00:40.166Z,5.91
2022-11-25T03:03:08.240Z,6.04
2022-11-25T03:05:36.178Z,5.64
2022-11-25T03:08:04.023Z,5.61
2022-11-25T03:10:32.200Z,5.39
2022-11-25T03:13:01.649Z,5.55
2022-11-25T03:15:29.737Z,5.66
2022-11-25T03:17:58.106Z,5.35
2022-11-25T03:20:26.213Z,5.16
2022-11-25T03:22:53.928Z,5.16
2022-11-25T03:25:21.807Z,5.43
2022-11-25T03:27:49.839Z,5.20
2022-11-25T03:30:24.060Z,5.46
2022-11-25T03:32:51.947Z,5.29
2022-11-25T03:35:19.961Z,5.11
2022-11-25T03:37:47.905Z,5.10
2022-11-25T03:40:16.733Z,5.53
2022-11-25T03:42:44.919Z,5.06
2022-11-25T03:45:14.635Z,5.18
2022-11-25T03:47:45.394Z,4.96
2022-11-25T03:50:15.722Z,5.05
2022-11-25T03:52:43.483Z,4.48
2022-11-25T03:55:13.087Z,4.95
2022-11-25T03:57:41.028Z,5.00
2022-11-25T04:00:10.522Z,4.52
2022-11-25T04:02:38.304Z,4.38
2022-11-25T04:05:08.401Z,4.41
2022-11-25T04:07:36.207Z,4.48
2022-11-25T04:10:04.347Z,4.68
2022-11-25T04:12:49.186Z,4.65
2022-11-25T04:15:18.402Z,4.66
2022-11-25T04:17:46.439Z,4.77
2022-11-25T04:20:16.316Z,4.66
2022-11-25T04:22:44.274Z,4.67
2022-11-25T04:25:12.429Z,4.75
2022-11-25T04:27:40.200Z,4.76
2022-11-25T04:30:09.271Z,5.05
2022-11-25T04:32:37.851Z,5.01
2022-11-25T04:35:06.394Z,5.06
2022-11-25T04:37:35.479Z,5.35
2022-11-25T04:40:03.246Z,5.17
2022-11-25T04:42:34.639Z,5.23
2022-11-25T04:47:52.386Z,5.20
2022-11-25T04:50:22.632Z,5.32
2022-11-25T04:52:51.913Z,5.21
2022-11-25T04:55:19.632Z,5.47
2022-11-25T04:57:47.365Z,5.12
2022-11-25T05:00:14.833Z,5.72
2022-11-25T05:02:42.838Z,5.68
2022-11-25T05:05:10.678Z,5.22
2022-11-25T05:07:38.720Z,5.47
2022-11-25T05:10:11.336Z,5.55
2022-11-25T05:12:39.412Z,5.77
2022-11-25T05:15:08.056Z,5.72
2022-11-25T05:17:36.294Z,5.75
2022-11-25T05:20:04.843Z,5.59
2022-11-25T05:22:34.151Z,5.46
2022-11-25T05:25:01.994Z,6.01
2022-11-25T05:27:31.124Z,5.59
2022-11-25T05:29:58.872Z,5.76
2022-11-25T05:32:26.658Z,5.66
2022-11-25T05:34:54.527Z,5.72
2022-11-25T05:37:24.578Z,5.54
2022-11-25T05:39:53.029Z,5.85
2022-11-25T05:42:20.771Z,5.62
2022-11-25T05:44:49.826Z,5.81
2022-11-25T05:47:17.601Z,6.03
2022-11-25T05:49:45.348Z,6.06
2022-11-25T05:52:13.107Z,5.98
2022-11-25T05:54:40.924Z,5.88
2022-11-25T05:57:08.727Z,5.64
2022-11-25T05:59:36.552Z,5.59
2022-11-25T06:02:05.938Z,5.40
2022-11-25T06:04:34.098Z,5.39
2022-11-25T06:07:02.084Z,5.62
2022-11-25T06:09:29.785Z,5.62
2022-11-25T06:11:57.498Z,5.70
2022-11-25T06:14:25.222Z,5.30
2022-11-25T06:16:53.408Z,5.52
2022-11-25T06:19:22.456Z,5.51
2022-11-25T06:21:50.194Z,5.34
2022-11-25T06:24:18.733Z,5.18
2022-11-25T06:26:46.464Z,5.34
2022-11-25T06:29:14.173Z,5.50
2022-11-25T06:31:42.025Z,5.35
2022-11-25T06:34:09.839Z,5.81
2022-11-25T06:36:38.951Z,5.76
2022-11-25T06:39:06.822Z,5.49
2022-11-25T06:41:34.558Z,5.35
2022-11-25T06:44:02.296Z,5.39
2022-11-25T06:46:30.059Z,4.74
2022-11-25T06:49:00.548Z,4.96
2022-11-25T06:51:28.294Z,4.89
2022-11-25T06:53:57.447Z,4.90
2022-11-25T06:56:27.391Z,4.88
2022-11-25T06:58:56.135Z,4.92
2022-11-25T07:01:25.811Z,4.80
2022-11-25T07:03:55.510Z,5.01
2022-11-25T07:06:23.657Z,5.07
2022-11-25T07:08:51.955Z,5.04
2022-11-25T07:11:23.967Z,4.73
2022-11-25T07:13:53.773Z,5.07
2022-11-25T07:16:21.564Z,5.15
2022-11-25T07:18:49.660Z,5.70
2022-11-25T07:21:18.993Z,5.30
2022-11-25T07:23:47.909Z,5.00
2022-11-25T07:26:18.511Z,5.15
2022-11-25T07:28:47.563Z,5.46
2022-11-25T07:31:28.755Z,5.54
2022-11-25T07:34:01.029Z,5.46
2022-11-25T07:36:29.864Z,5.58
2022-11-25T07:38:58.752Z,5.44
2022-11-25T07:41:28.514Z,5.94
2022-11-25T07:43:58.959Z,5.68
2022-11-25T07:46:28.966Z,5.80
2022-11-25T07:48:58.914Z,5.30
2022-11-25T07:51:28.363Z,5.57
2022-11-25T07:53:58.136Z,5.41
2022-11-25T07:56:26.196Z,5.73
2022-11-25T07:58:54.669Z,5.50
2022-11-25T08:01:24.228Z,5.70
2022-11-25T08:03:53.353Z,5.85
2022-11-25T08:06:22.867Z,5.84
2022-11-25T08:08:52.821Z,5.83
2022-11-25T08:11:22.529Z,5.75
2022-11-25T08:13:50.922Z,5.65
2022-11-25T08:16:20.707Z,5.45
2022-11-25T08:18:50.282Z,5.44
2022-11-25T08:21:18.877Z,5.58
2022-11-25T08:23:48.703Z,5.49
2022-11-25T08:26:19.225Z,5.40
2022-11-25T08:28:48.139Z,5.63
2022-11-25T08:31:17.880Z,5.40
2022-11-25T08:33:46.124Z,5.49
2022-11-25T08:36:16.032Z,5.68
2022-11-25T08:38:44.811Z,5.84
2022-11-25T08:41:14.379Z,5.59
2022-11-25T08:43:42.338Z,5.58
2022-11-25T08:46:12.205Z,5.84
2022-11-25T08:48:40.152Z,5.82
2022-11-25T08:51:12.552Z,5.77
2022-11-25T08:53:42.811Z,5.48
2022-11-25T08:56:10.905Z,5.72
2022-11-25T08:58:38.887Z,5.93
2022-11-25T09:01:07.707Z,5.76
2022-11-25T09:03:36.635Z,5.88
2022-11-25T09:06:05.627Z,5.82
2022-11-25T09:08:33.444Z,5.94
2022-11-25T09:11:02.695Z,5.89
2022-11-25T09:13:30.523Z,6.19
2022-11-25T09:15:58.760Z,6.10
2022-11-25T09:18:26.443Z,5.97
2022-11-25T09:20:55.024Z,6.30
2022-11-25T09:23:23.296Z,6.18
2022-11-25T09:25:55.166Z,6.16
2022-11-25T09:28:25.378Z,6.39
2022-11-25T09:30:53.910Z,6.58
2022-11-25T09:33:22.609Z,6.54
2022-11-25T09:35:51.017Z,6.35
2022-11-25T09:38:18.782Z,6.40
2022-11-25T09:40:53.807Z,6.12
2022-11-25T09:43:54.355Z,6.46
2022-11-25T09:46:46.749Z,6.37
2022-11-25T09:49:31.936Z,6.32
2022-11-25T09:52:10.964Z,6.40
2022-11-25T09:54:41.250Z,6.63
2022-11-25T09:57:22.777Z,6.54
2022-11-25T10:00:02.516Z,6.50
2022-11-25T10:02:39.082Z,6.41
2022-11-25T10:05:13.753Z,6.25
2022-11-25T10:07:45.086Z,6.37
2022-11-25T10:10:20.843Z,6.56
2022-11-25T10:12:50.770Z,6.82
2022-11-25T10:15:27.351Z,6.27
2022-11-25T10:17:59.178Z,6.41
2022-11-25T10:20:32.734Z,6.51
2022-11-25T10:23:03.223Z,6.29
2022-11-25T10:25:34.255Z,6.69
2022-11-25T10:28:03.734Z,6.54
2022-11-25T10:30:38.614Z,6.66
2022-11-25T10:33:13.863Z,6.80
2022-11-25T10:35:48.216Z,7.10
2022-11-25T10:38:23.601Z,6.63
2022-11-25T10:40:53.455Z,6.40
2022-11-25T10:43:21.462Z,6.67
2022-11-25T10:45:59.773Z,6.47
2022-11-25T10:48:50.878Z,6.67
2022-11-25T10:51:33.595Z,6.65
2022-11-25T10:54:16.418Z,6.60
2022-11-25T10:56:46.943Z,6.60
2022-11-25T10:59:16.156Z,6.44
2022-11-25T11:01:47.286Z,6.48
2022-11-25T11:04:18.384Z,6.87
2022-11-25T11:06:47.736Z,6.70
2022-11-25T11:09:34.382Z,7.17
2022-11-25T11:12:15.609Z,6.86
2022-11-25T11:14:43.466Z,7.28
2022-11-25T11:17:36.416Z,7.00
2022-11-25T11:20:22.547Z,7.03
2022-11-25T11:22:58.373Z,7.05
2022-11-25T11:25:34.812Z,6.58
2022-11-25T11:28:03.496Z,7.19
2022-11-25T11:30:32.968Z,6.85
2022-11-25T11:33:05.601Z,7.19
2022-11-25T11:35:55.393Z,7.01
2022-11-25T11:38:33.700Z,7.04
2022-11-25T11:41:13.260Z,7.54
2022-11-25T11:43:56.488Z,7.41
2022-11-25T11:46:40.026Z,7.20
2022-11-25T11:49:30.857Z,7.43
2022-11-25T11:52:08.866Z,7.21
2022-11-25T11:54:41.318Z,7.24
2022-11-25T11:57:17.484Z,7.73
2022-11-25T11:59:49.051Z,7.53
2022-11-25T12:02:28.363Z,7.51
2022-11-25T12:05:05.841Z,7.17
2022-11-25T12:07:38.540Z,7.31
2022-11-25T12:10:16.579Z,7.29
2022-11-25T12:12:54.245Z,7.36
2022-11-25T12:15:29.911Z,7.28
2022-11-25T12:18:03.660Z,7.38
2022-11-25T12:20:42.286Z,7.30
2022-11-25T12:23:16.853Z,7.64
2022-11-25T12:25:46.275Z,7.61
2022-11-25T12:28:19.549Z,7.33
2022-11-25T12:31:04.898Z,7.46
2022-11-25T12:33:45.220Z,7.24
2022-11-25T12:36:19.078Z,7.66
2022-11-25T12:38:49.327Z,7.54
2022-11-25T12:41:28.971Z,7.37
2022-11-25T12:44:01.484Z,7.38
2022-11-25T12:46:36.471Z,7.54
2022-11-25T12:49:06.619Z,7.58
2022-11-25T12:52:02.647Z,7.45
2022-11-25T12:54:44.802Z,7.95
2022-11-25T12:57:49.017Z,7.26
2022-11-25T13:03:34.783Z,7.45
2022-11-25T13:06:23.782Z,7.73
2022-11-25T13:09:01.975Z,7.54
2022-11-25T13:11:47.867Z,7.50
2022-11-25T13:14:25.976Z,7.98
2022-11-25T13:16:56.147Z,7.42
2022-11-25T13:19:24.990Z,7.50
2022-11-25T13:22:07.564Z,7.51
2022-11-25T13:24:42.246Z,7.76
2022-11-25T13:27:31.259Z,7.87
2022-11-25T13:30:00.913Z,7.87
2022-11-25T13:32:41.263Z,7.98
2022-11-25T13:35:50.360Z,7.85
2022-11-25T13:38:39.071Z,8.13
2022-11-25T13:41:24.730Z,8.24
2022-11-25T13:44:01.710Z,8.14
2022-11-25T13:46:38.491Z,7.72
2022-11-25T13:49:08.222Z,8.07
2022-11-25T13:51:35.971Z,7.68
2022-11-25T13:54:07.308Z,7.57
2022-11-25T13:56:37.747Z,7.71
2022-11-25T13:59:38.983Z,7.50
2022-11-25T14:02:36.413Z,7.82
2022-11-25T14:05:15.448Z,7.60
2022-11-25T14:07:50.560Z,7.62
2022-11-25T14:10:45.682Z,7.43
2022-11-25T14:13:48.969Z,7.41
2022-11-25T14:16:41.440Z,7.73
2022-11-25T14:22:37.251Z,7.78
2022-11-25T14:25:17.222Z,7.62
2022-11-25T14:27:48.527Z,7.60
2022-11-25T14:30:18.168Z,7.54
2022-11-25T14:32:55.980Z,7.58
2022-11-25T14:35:28.358Z,7.66
2022-11-25T14:38:01.452Z,7.61
2022-11-25T14:40:35.865Z,7.47
2022-11-25T14:43:07.195Z,7.56
2022-11-25T14:45:36.689Z,7.81
2022-11-25T14:48:19.671Z,7.67
2022-11-25T14:50:58.031Z,7.51
2022-11-25T14:53:26.565Z,7.56
2022-11-25T14:55:54.989Z,8.15
2022-11-25T14:58:22.947Z,7.56
2022-11-25T15:00:52.665Z,7.47
2022-11-25T15:03:21.779Z,7.84
2022-11-25T15:05:57.142Z,7.72
2022-11-25T15:08:26.813Z,7.30
2022-11-25T15:11:00.167Z,7.45
2022-11-25T15:13:37.942Z,7.68
2022-11-25T15:16:09.814Z,7.62
2022-11-25T15:18:39.922Z,7.62
2022-11-25T15:21:07.840Z,7.51
2022-11-25T15:23:38.848Z,7.47
2022-11-25T15:26:18.965Z,7.46
2022-11-25T15:28:47.211Z,7.27
2022-11-25T15:31:20.742Z,7.20
2022-11-25T15:33:54.929Z,7.35
2022-11-25T15:36:23.886Z,7.54
2022-11-25T15:38:51.716Z,7.38
2022-11-25T15:41:25.586Z,7.55
2022-11-25T15:43:56.344Z,7.59
2022-11-25T15:46:25.667Z,7.57
2022-11-25T15:48:58.679Z,7.60
2022-11-25T15:51:34.188Z,7.83
2022-11-25T15:54:06.466Z,7.60
2022-11-25T15:56:38.900Z,7.42
2022-11-25T15:59:08.843Z,7.70
2022-11-25T16:01:41.481Z,7.46
2022-11-25T16:04:21.320Z,7.72
2022-11-25T16:06:56.550Z,7.66
2022-11-25T16:09:28.559Z,7.43
2022-11-25T16:12:06.593Z,7.65
2022-11-25T16:14:37.414Z,7.73
2022-11-25T16:17:10.530Z,7.44
2022-11-25T16:19:44.004Z,7.81
2022-11-25T16:22:16.083Z,7.57
2022-11-25T16:24:50.575Z,7.93
2022-11-25T16:27:22.185Z,8.10
2022-11-25T16:29:53.017Z,7.47
2022-11-25T16:32:22.841Z,7.89
2022-11-25T16:34:52.127Z,7.45
2022-11-25T16:37:19.871Z,7.54
2022-11-25T16:39:47.600Z,7.59
2022-11-25T16:42:20.498Z,7.57
2022-11-25T16:44:50.130Z,7.63
2022-11-25T16:47:18.808Z,7.49
2022-11-25T16:49:47.350Z,7.62
2022-11-25T16:52:16.554Z,7.63
2022-11-25T16:54:44.301Z,7.55
2022-11-25T16:57:17.832Z,7.58
2022-11-25T16:59:46.610Z,7.62
2022-11-25T17:02:19.200Z,7.45
2022-11-25T17:04:47.582Z,7.19
2022-11-25T17:07:34.691Z,7.24
2022-11-25T17:10:03.043Z,7.22
2022-11-25T17:12:34.215Z,7.51
2022-11-25T17:15:04.028Z,7.39
2022-11-25T17:17:32.181Z,7.49
2022-11-25T17:19:59.878Z,7.56
2022-11-25T17:22:33.356Z,7.62
2022-11-25T17:25:04.501Z,7.66
2022-11-25T17:27:33.990Z,7.51
2022-11-25T17:30:04.404Z,7.53
2022-11-25T17:32:33.044Z,7.16
2022-11-25T17:35:00.855Z,7.39
2022-11-25T17:37:31.107Z,7.35
2022-11-25T17:39:58.845Z,7.23
2022-11-25T17:42:30.181Z,7.38
2022-11-25T17:44:58.506Z,7.49
2022-11-25T17:47:26.248Z,7.53
2022-11-25T17:49:54.478Z,7.45
2022-11-25T17:52:22.295Z,7.53
2022-11-25T17:54:51.360Z,7.32
2022-11-25T17:57:23.293Z,7.54
2022-11-25T17:59:51.279Z,7.66
2022-11-25T18:02:20.821Z,7.57
2022-11-25T18:04:48.703Z,7.28
2022-11-25T18:07:16.627Z,7.57
2022-11-25T18:09:45.865Z,7.52
2022-11-25T18:12:19.707Z,7.72
2022-11-25T18:14:47.583Z,7.66
2022-11-25T18:17:19.077Z,8.22
2022-11-25T18:19:52.941Z,7.98
2022-11-25T18:22:23.925Z,8.01
2022-11-25T18:24:52.488Z,7.76
2022-11-25T18:27:24.756Z,7.81
2022-11-25T18:29:53.178Z,7.58
2022-11-25T18:32:21.166Z,7.96
2022-11-25T18:34:48.932Z,7.65
2022-11-25T18:37:16.833Z,7.70
2022-11-25T18:39:44.684Z,7.81
2022-11-25T18:42:23.988Z,7.51
2022-11-25T18:44:53.548Z,7.19
2022-11-25T18:47:21.274Z,7.51
2022-11-25T18:49:55.200Z,7.59
2022-11-25T18:52:23.929Z,7.52
2022-11-25T18:54:51.658Z,7.41
2022-11-25T18:57:19.534Z,7.37
2022-11-25T18:59:56.008Z,7.60
2022-11-25T19:02:36.954Z,7.67
2022-11-25T19:05:16.171Z,7.87
2022-11-25T19:07:43.957Z,7.39
2022-11-25T19:10:13.855Z,7.73
2022-11-25T19:12:44.201Z,7.55
2022-11-25T19:15:15.528Z,7.66
2022-11-25T19:17:46.939Z,7.67
2022-11-25T19:20:16.139Z,7.87
2022-11-25T19:22:43.912Z,7.46
2022-11-25T19:25:11.746Z,7.91
2022-11-25T19:27:43.466Z,7.93
2022-11-25T19:30:16.877Z,7.59
2022-11-25T19:32:47.980Z,7.67
2022-11-25T19:35:18.680Z,7.57
2022-11-25T19:37:49.118Z,7.92
2022-11-25T19:40:18.660Z,8.21
2022-11-25T19:42:48.369Z,7.85
2022-11-25T19:45:18.218Z,8.05
2022-11-25T19:50:39.599Z,8.03
2022-11-25T19:53:10.608Z,8.10
2022-11-25T19:55:38.374Z,8.10
2022-11-25T19:58:06.107Z,7.71
2022-11-25T20:00:35.431Z,7.49
2022-11-25T20:03:05.016Z,7.62
2022-11-25T20:05:35.223Z,7.76
2022-11-25T20:08:03.029Z,7.41
2022-11-25T20:10:32.915Z,7.67
2022-11-25T20:13:00.802Z,7.72
2022-11-25T20:15:28.716Z,7.72
2022-11-25T20:18:00.944Z,7.91
2022-11-25T20:20:35.341Z,8.52
2022-11-25T20:23:07.421Z,7.95
2022-11-25T20:25:37.423Z,7.74
2022-11-25T20:28:05.301Z,7.53
2022-11-25T20:30:33.076Z,7.66
2022-11-25T20:33:00.941Z,8.09
2022-11-25T20:35:35.861Z,8.00
2022-11-25T20:38:04.266Z,7.72
2022-11-25T20:40:39.264Z,7.72
2022-11-25T20:43:10.011Z,7.63
2022-11-25T20:45:37.904Z,7.57
2022-11-25T20:48:11.547Z,7.55
2022-11-25T20:50:40.680Z,7.66
2022-11-25T20:53:15.779Z,7.78
2022-11-25T20:55:44.135Z,8.05
2022-11-25T20:58:22.012Z,7.76
2022-11-25T21:00:54.144Z,7.83
2022-11-25T21:03:25.304Z,7.90
2022-11-25T21:05:58.013Z,7.63
2022-11-25T21:08:31.496Z,8.61
2022-11-25T21:11:00.407Z,8.39
2022-11-25T21:13:30.364Z,8.51
2022-11-25T21:15:59.524Z,8.42
2022-11-25T21:18:27.565Z,8.42
2022-11-25T21:20:58.295Z,8.08
2022-11-25T21:23:29.750Z,7.87
2022-11-25T21:26:05.029Z,8.03
2022-11-25T21:28:33.989Z,7.94
2022-11-25T21:31:03.873Z,8.90
2022-11-25T21:33:35.167Z,8.35
2022-11-25T21:36:04.624Z,7.90
2022-11-25T21:38:32.443Z,7.93
2022-11-25T21:41:00.381Z,8.21
2022-11-25T21:43:32.143Z,8.24
2022-11-25T21:46:02.405Z,8.07
2022-11-25T21:48:31.032Z,8.34
2022-11-25T21:50:58.989Z,8.19
2022-11-25T21:53:30.935Z,8.50
2022-11-25T21:56:02.410Z,8.33
2022-11-25T21:58:31.832Z,8.29
2022-11-25T22:01:01.867Z,8.12
2022-11-25T22:03:32.063Z,8.34
2022-11-25T22:05:59.817Z,8.32
2022-11-25T22:08:30.575Z,7.94
2022-11-25T22:10:58.326Z,8.08
2022-11-25T22:13:38.942Z,8.10
2022-11-25T22:16:07.469Z,8.12
2022-11-25T22:18:37.402Z,7.80
2022-11-25T22:21:05.315Z,8.07
2022-11-25T22:23:34.419Z,8.00
2022-11-25T22:26:02.218Z,8.15
2022-11-25T22:28:31.638Z,8.55
2022-11-25T22:31:03.737Z,8.08
2022-11-25T22:33:35.084Z,8.48
2022-11-25T22:36:03.310Z,7.97
2022-11-25T22:38:31.441Z,8.28
2022-11-25T22:41:02.871Z,8.06
2022-11-25T22:43:34.976Z,7.96
2022-11-25T22:46:04.287Z,7.86
2022-11-25T22:48:34.555Z,7.86
2022-11-25T22:51:02.625Z,7.68
2022-11-25T22:53:30.335Z,8.06
2022-11-25T22:55:58.604Z,8.07
2022-11-25T22:58:28.276Z,8.35
2022-11-25T23:00:57.803Z,8.80
2022-11-25T23:03:29.137Z,8.45
2022-11-25T23:05:57.786Z,8.15
2022-11-25T23:08:28.257Z,7.89
2022-11-25T23:10:57.189Z,7.91
2022-11-25T23:13:26.934Z,8.09
2022-11-25T23:15:56.829Z,8.30
2022-11-25T23:18:29.584Z,8.41
2022-11-25T23:20:59.600Z,8.06
2022-11-25T23:23:29.216Z,8.29
2022-11-25T23:25:57.742Z,8.24
2022-11-25T23:28:26.808Z,7.93
2022-11-25T23:30:56.005Z,7.92
2022-11-25T23:33:30.714Z,7.70
2022-11-25T23:36:02.526Z,7.98
2022-11-25T23:38:32.733Z,7.95
2022-11-25T23:41:00.458Z,8.15
2022-11-25T23:43:29.551Z,8.40
2022-11-25T23:45:57.626Z,8.54
2022-11-25T23:48:29.075Z,8.71
2022-11-25T23:50:58.818Z,8.33
2022-11-25T23:53:30.452Z,8.01
2022-11-25T23:55:58.205Z,8.13
2022-11-25T23:58:26.293Z,8.11
